Time;durP1;ratioP1;P1;durP2;ratioP2;P2;SDS_P1;SDS_P2;PMS_P1;PMS_P2;Temp;Humidity;BMP_temperature;BMP_pressure;BME280_temperature;BME280_humidity;BME280_pressure;Samples;Min_cycle;Max_cycle;Signal;HPM_P1;HPM_P2
2023/03/20 00:00:50;;;;;;;;;14.40;14.40;;;;;12.17;49.38;101596.69;2095986;28;46093;-68
2023/03/20 00:01:51;;;;;;;;;11.60;9.80;;;;;12.15;49.20;101591.38;2091586;28;46463;-67
2023/03/20 00:02:51;;;;;;;;;13.50;13.00;;;;;12.16;49.30;101593.13;2084185;28;46447;-68
2023/03/20 00:03:52;;;;;;;;;12.00;10.75;;;;;12.16;49.73;101594.91;2080096;28;46427;-67
2023/03/20 00:04:52;;;;;;;;;13.75;13.00;;;;;12.15;49.40;101602.03;2093039;28;45143;-68
2023/03/20 00:05:52;;;;;;;;;12.50;12.50;;;;;12.16;49.48;101597.59;2095945;28;46560;-68
2023/03/20 00:06:53;;;;;;;;;11.50;10.50;;;;;12.15;49.48;101595.81;2092805;28;46683;-68
2023/03/20 00:07:54;;;;;;;;;11.75;11.75;;;;;12.16;49.49;101586.94;2093320;28;46112;-68
2023/03/20 00:08:56;;;;;;;;;12.20;12.00;;;;;12.16;49.51;101597.59;2087736;28;46410;-67
2023/03/20 00:09:56;;;;;;;;;10.20;10.20;;;;;12.15;49.46;101598.50;2093059;28;45425;-67
2023/03/20 00:10:57;;;;;;;;;11.00;9.25;;;;;12.14;49.67;101602.94;2095615;28;46483;-67
2023/03/20 00:11:59;;;;;;;;;9.60;9.60;;;;;12.14;49.47;101602.06;2096009;28;46309;-67
2023/03/20 00:13:00;;;;;;;;;11.60;10.40;;;;;12.14;49.22;101602.06;2089506;28;45721;-69
2023/03/20 00:14:12;;;;;;;;;9.80;9.80;;;;;12.14;49.30;101599.38;2095852;28;46469;-67
2023/03/20 00:15:34;;;;;;;;;11.00;8.60;;;;;12.15;49.35;101598.50;2090411;28;46489;-67
2023/03/20 00:16:37;;;;;;;;;7.40;6.60;;;;;12.15;49.46;101601.16;2092044;28;46452;-68
2023/03/20 00:17:38;;;;;;;;;8.00;8.00;;;;;12.16;49.39;101601.13;2093039;28;45812;-68
2023/03/20 00:18:40;;;;;;;;;9.75;9.75;;;;;12.17;49.58;101608.19;2090107;28;46339;-67
2023/03/20 00:19:41;;;;;;;;;10.40;8.60;;;;;12.18;49.45;101609.06;2093630;28;46361;-67
2023/03/20 00:20:41;;;;;;;;;10.75;9.75;;;;;12.18;49.29;101609.06;2105853;28;46324;-67
2023/03/20 00:21:42;;;;;;;;;9.75;9.50;;;;;12.17;49.41;101600.22;2095755;28;46312;-67
2023/03/20 00:22:42;;;;;;;;;5.00;4.00;;;;;12.19;49.15;101605.50;2095892;28;46614;-68
2023/03/20 00:23:42;;;;;;;;;8.00;8.00;;;;;12.20;49.47;101604.66;2099798;28;46480;-67
2023/03/20 00:24:43;;;;;;;;;9.25;9.25;;;;;12.21;49.33;101611.72;2100607;28;46826;-67
2023/03/20 00:25:45;;;;;;;;;8.75;8.00;;;;;12.21;49.57;101617.03;2104226;28;46498;-68
2023/03/20 00:26:47;;;;;;;;;9.00;9.00;;;;;12.21;49.34;101611.72;2099894;28;46822;-67
2023/03/20 00:27:48;;;;;;;;;10.60;9.60;;;;;12.22;49.52;101621.47;2098522;28;46953;-67
2023/03/20 00:28:49;;;;;;;;;9.40;9.40;;;;;12.19;49.42;101605.50;2105554;28;46776;-68
2023/03/20 00:29:49;;;;;;;;;8.50;8.00;;;;;12.20;49.53;101616.16;2105331;28;46284;-67
2023/03/20 00:30:50;;;;;;;;;7.25;7.00;;;;;12.20;49.63;101613.50;2105255;28;46356;-67
2023/03/20 00:31:51;;;;;;;;;9.60;9.60;;;;;12.22;49.53;101614.34;2096327;28;46139;-67
2023/03/20 00:32:52;;;;;;;;;8.00;8.00;;;;;12.22;49.38;101614.34;2096757;28;46726;-68
2023/03/20 00:33:55;;;;;;;;;8.00;7.75;;;;;12.23;49.41;101615.22;2105586;28;46268;-68
2023/03/20 00:34:55;;;;;;;;;9.00;8.00;;;;;12.23;49.61;101615.22;2101424;28;45310;-67
2023/03/20 00:35:57;;;;;;;;;11.00;8.50;;;;;12.23;49.44;101613.44;2096184;28;46704;-67
2023/03/20 00:36:58;;;;;;;;;12.60;9.80;;;;;12.24;49.55;101601.03;2096557;28;47208;-68
2023/03/20 00:37:59;;;;;;;;;9.00;9.00;;;;;12.24;49.59;101598.38;2102302;28;45617;-67
2023/03/20 00:39:00;;;;;;;;;9.50;9.25;;;;;12.24;49.39;101601.91;2105476;28;46489;-67
2023/03/20 00:40:01;;;;;;;;;8.80;8.80;;;;;12.23;49.56;101604.59;2098970;28;46758;-68
2023/03/20 00:41:11;;;;;;;;;10.50;9.75;;;;;12.22;49.50;101597.50;2104391;28;46386;-68
2023/03/20 00:42:21;;;;;;;;;9.60;9.00;;;;;12.20;49.67;101596.66;2100077;28;45666;-68
2023/03/20 00:43:21;;;;;;;;;9.40;9.40;;;;;12.19;49.58;101602.84;2098699;28;46213;-68
2023/03/20 00:44:32;;;;;;;;;8.00;8.00;;;;;12.19;49.43;101608.19;2105267;28;46563;-68
2023/03/20 00:45:34;;;;;;;;;6.80;6.80;;;;;12.19;49.51;101606.41;2099215;28;46628;-68
2023/03/20 00:46:37;;;;;;;;;8.20;8.20;;;;;12.19;49.21;101608.19;2098323;28;46449;-68
2023/03/20 00:47:40;;;;;;;;;8.40;8.40;;;;;12.18;49.40;101601.97;2105128;28;46782;-68
2023/03/20 00:48:42;;;;;;;;;9.40;7.80;;;;;12.19;49.43;101606.41;2096587;28;45164;-68
2023/03/20 00:49:44;;;;;;;;;7.40;7.40;;;;;12.19;49.43;101601.06;2096425;28;46943;-68
2023/03/20 00:50:44;;;;;;;;;9.60;9.60;;;;;12.17;49.57;101597.56;2104670;28;45679;-68
2023/03/20 00:51:45;;;;;;;;;8.25;8.25;;;;;12.16;49.56;101598.47;2104544;28;46498;-68
2023/03/20 00:52:47;;;;;;;;;8.25;8.25;;;;;12.15;49.51;101602.03;2100266;28;46730;-68
2023/03/20 00:53:47;;;;;;;;;9.00;7.40;;;;;12.13;49.70;101593.19;2100584;28;46490;-67
2023/03/20 00:54:47;;;;;;;;;6.00;6.00;;;;;12.12;49.54;101594.09;2105370;28;46364;-68
2023/03/20 00:55:48;;;;;;;;;9.00;8.75;;;;;12.10;49.77;101593.25;2101249;28;46337;-68
2023/03/20 00:56:59;;;;;;;;;9.25;7.75;;;;;12.10;49.55;101600.34;2096732;28;46542;-68
2023/03/20 00:58:01;;;;;;;;;9.40;9.40;;;;;12.08;49.71;101603.91;2104647;27;46900;-67
2023/03/20 00:59:03;;;;;;;;;8.40;8.40;;;;;12.08;49.65;101605.69;2104285;28;46489;-67
2023/03/20 01:00:07;;;;;;;;;7.80;7.80;;;;;12.06;49.88;101603.03;2105200;28;46705;-68
2023/03/20 01:01:07;;;;;;;;;8.00;7.80;;;;;12.05;49.77;101608.38;2105062;28;46912;-67
2023/03/20 01:02:10;;;;;;;;;7.50;7.00;;;;;12.03;49.73;101603.06;2101891;28;46234;-67
2023/03/20 01:03:15;;;;;;;;;9.00;8.00;;;;;12.02;49.78;101592.47;2103791;28;46376;-68
2023/03/20 01:04:18;;;;;;;;;8.00;7.40;;;;;12.01;49.91;101596.03;2097862;28;46428;-67
2023/03/20 01:05:20;;;;;;;;;8.60;8.20;;;;;12.00;49.94;101597.81;2102300;28;46405;-68
2023/03/20 01:06:20;;;;;;;;;6.60;6.60;;;;;12.00;49.77;101600.47;2104801;28;47142;-67
2023/03/20 01:07:21;;;;;;;;;7.00;6.75;;;;;12.00;49.89;101596.91;2091938;28;46945;-67
2023/03/20 01:08:23;;;;;;;;;10.25;9.00;;;;;11.98;50.08;101596.94;2092278;28;46653;-68
2023/03/20 01:09:24;;;;;;;;;7.80;7.80;;;;;11.99;49.91;101589.84;2104885;28;45671;-68
2023/03/20 01:10:29;;;;;;;;;8.25;8.25;;;;;11.98;50.11;101596.94;2105325;28;45544;-67
2023/03/20 01:11:30;;;;;;;;;9.60;8.00;;;;;11.97;49.99;101604.94;2105035;28;46884;-68
2023/03/20 01:12:31;;;;;;;;;9.50;8.00;;;;;11.96;49.99;101608.50;2079187;28;46758;-68
2023/03/20 01:13:32;;;;;;;;;10.20;7.60;;;;;11.94;50.10;101608.53;2078666;28;46334;-68
2023/03/20 01:14:33;;;;;;;;;6.75;6.75;;;;;11.94;50.11;101612.94;2105312;28;46868;-66
2023/03/20 01:15:35;;;;;;;;;9.80;9.80;;;;;11.94;50.12;101607.63;2101310;28;46685;-68
2023/03/20 01:16:35;;;;;;;;;8.00;7.00;;;;;11.93;50.12;101606.75;2102223;28;46988;-68
2023/03/20 01:17:36;;;;;;;;;7.00;7.00;;;;;11.92;50.25;101601.44;2105251;28;46641;-68
2023/03/20 01:18:36;;;;;;;;;8.50;7.00;;;;;11.91;50.32;101608.56;2105279;28;46549;-68
2023/03/20 01:19:37;;;;;;;;;8.50;7.00;;;;;11.92;50.33;101606.78;2102571;28;46551;-68
2023/03/20 01:20:38;;;;;;;;;9.50;8.75;;;;;11.90;50.27;101604.13;2105066;28;47054;-66
2023/03/20 01:21:38;;;;;;;;;8.40;7.80;;;;;11.90;50.33;101608.56;2098063;28;46536;-67
2023/03/20 01:22:39;;;;;;;;;10.50;9.50;;;;;11.89;50.39;101609.47;2098873;28;45863;-68
2023/03/20 01:23:39;;;;;;;;;8.00;8.00;;;;;11.88;50.43;101610.38;2105156;28;46629;-67
2023/03/20 01:24:40;;;;;;;;;11.00;10.00;;;;;11.88;50.37;101607.72;2105404;28;45671;-68
2023/03/20 01:25:41;;;;;;;;;9.75;8.75;;;;;11.87;50.40;101614.81;2104777;28;46951;-68
2023/03/20 01:26:43;;;;;;;;;11.80;11.00;;;;;11.88;50.57;101611.25;2105144;28;47069;-67
2023/03/20 01:27:51;;;;;;;;;9.80;9.80;;;;;11.88;50.41;101615.69;2102666;28;46776;-67
2023/03/20 01:28:51;;;;;;;;;9.60;8.40;;;;;11.86;50.65;101610.41;2105024;28;46356;-67
2023/03/20 01:29:52;;;;;;;;;8.75;8.00;;;;;11.85;50.55;101611.31;2105021;28;46710;-67
2023/03/20 01:30:52;;;;;;;;;9.00;9.00;;;;;11.85;50.43;101610.44;2104968;28;46376;-68
2023/03/20 01:31:53;;;;;;;;;10.00;8.75;;;;;11.84;50.45;101604.22;2104355;28;45706;-68
2023/03/20 01:32:55;;;;;;;;;8.00;8.00;;;;;11.85;50.35;101616.63;2104624;28;47130;-68
2023/03/20 01:33:55;;;;;;;;;6.80;6.80;;;;;11.84;50.49;101609.56;2105002;28;46738;-67
2023/03/20 01:34:57;;;;;;;;;7.25;7.25;;;;;11.84;50.41;101611.34;2104935;28;45557;-67
2023/03/20 01:35:58;;;;;;;;;7.00;7.00;;;;;11.82;50.21;101613.13;2095764;28;46425;-68
2023/03/20 01:36:58;;;;;;;;;7.40;7.40;;;;;11.81;50.41;101609.56;2096085;28;46397;-69
2023/03/20 01:37:59;;;;;;;;;7.25;7.25;;;;;11.80;50.46;101618.44;2102158;28;45683;-67
2023/03/20 01:39:00;;;;;;;;;7.60;7.60;;;;;11.79;50.45;101614.91;2104315;28;45712;-67
2023/03/20 01:40:00;;;;;;;;;9.75;7.75;;;;;11.78;50.64;101613.13;2104814;28;46721;-68
2023/03/20 01:41:16;;;;;;;;;9.25;8.50;;;;;11.78;50.49;101609.56;2105078;28;45875;-69
2023/03/20 01:42:17;;;;;;;;;9.00;9.00;;;;;11.76;50.60;101606.94;2105051;28;46390;-68
2023/03/20 01:43:20;;;;;;;;;9.50;9.25;;;;;11.76;50.43;101606.94;2104735;28;46034;-68
2023/03/20 01:44:24;;;;;;;;;8.60;8.20;;;;;11.77;50.41;101613.13;2104932;28;46261;-68
2023/03/20 01:45:32;;;;;;;;;7.00;7.00;;;;;11.78;50.64;101612.22;2104153;28;46539;-67
2023/03/20 01:46:35;;;;;;;;;7.60;7.60;;;;;11.76;50.61;101606.94;2100824;28;46314;-67
2023/03/20 01:47:36;;;;;;;;;11.40;10.20;;;;;11.75;50.59;101613.16;2105247;28;46775;-68
2023/03/20 01:48:48;;;;;;;;;9.75;9.50;;;;;11.76;50.45;101611.38;2096677;28;46891;-69
2023/03/20 01:50:21;;;;;;;;;4.20;4.20;;;;;11.74;50.52;101607.88;2104548;28;46599;-67
2023/03/20 01:51:24;;;;;;;;;9.20;7.20;;;;;11.74;50.58;101610.53;2100888;27;47051;-68
2023/03/20 01:52:25;;;;;;;;;7.75;7.75;;;;;11.73;50.67;101606.09;2104393;28;46126;-68
2023/03/20 01:53:27;;;;;;;;;7.33;6.33;;;;;11.73;50.59;101609.66;2094398;28;46907;-68
2023/03/20 01:54:36;;;;;;;;;8.50;6.50;;;;;11.73;50.60;101601.66;2096492;28;45674;-67
2023/03/20 01:55:39;;;;;;;;;8.00;7.20;;;;;11.74;50.60;101605.19;2103993;28;46403;-67
2023/03/20 01:56:46;;;;;;;;;8.40;8.40;;;;;11.73;50.68;101598.13;2104772;28;45702;-67
2023/03/20 01:57:47;;;;;;;;;7.60;7.60;;;;;11.74;50.60;101602.53;2100296;28;45828;-67
2023/03/20 01:58:55;;;;;;;;;6.20;4.60;;;;;11.75;50.68;101604.31;2104734;28;46968;-68
2023/03/20 02:00:19;;;;;;;;;8.40;8.00;;;;;11.74;50.85;101599.88;2096713;28;45896;-67
2023/03/20 02:01:19;;;;;;;;;8.40;8.40;;;;;11.75;50.67;101602.53;2096003;28;46618;-67
2023/03/20 02:02:27;;;;;;;;;9.00;8.00;;;;;11.75;50.66;101605.19;2102903;28;46422;-67
2023/03/20 02:03:28;;;;;;;;;10.00;9.20;;;;;11.75;50.46;101597.19;2104699;28;46477;-67
2023/03/20 02:04:32;;;;;;;;;11.00;9.00;;;;;11.76;50.68;101601.63;2104716;28;46930;-67
2023/03/20 02:05:35;;;;;;;;;9.00;9.00;;;;;11.77;50.79;101606.03;2104742;28;46960;-68
2023/03/20 02:06:37;;;;;;;;;10.00;9.80;;;;;11.78;50.69;101607.78;2104700;28;45916;-68
2023/03/20 02:07:38;;;;;;;;;11.00;11.00;;;;;11.79;50.98;101600.72;2099315;28;46426;-67
2023/03/20 02:08:51;;;;;;;;;14.80;12.20;;;;;11.80;51.02;101602.50;2098029;28;46621;-67
2023/03/20 02:09:52;;;;;;;;;16.20;13.80;;;;;11.81;51.12;101598.03;2097415;28;46450;-67
2023/03/20 02:10:54;;;;;;;;;17.00;14.50;;;;;11.81;51.00;101600.72;2099383;28;46433;-68
2023/03/20 02:11:56;;;;;;;;;17.60;17.40;;;;;11.81;51.05;101596.25;2100628;28;46670;-68
2023/03/20 02:12:57;;;;;;;;;21.00;17.20;;;;;11.82;51.41;101598.06;2095530;28;46404;-68
2023/03/20 02:14:00;;;;;;;;;14.60;14.60;;;;;11.82;51.39;101602.50;2095635;28;45928;-68
2023/03/20 02:15:02;;;;;;;;;16.80;16.00;;;;;11.82;51.52;101603.38;2096242;28;46662;-68
2023/03/20 02:16:02;;;;;;;;;19.60;19.60;;;;;11.82;51.54;101598.06;2097722;28;46987;-67
2023/03/20 02:17:06;;;;;;;;;15.75;14.75;;;;;11.84;51.64;101601.56;2103031;28;45918;-67
2023/03/20 02:18:07;;;;;;;;;18.40;17.00;;;;;11.83;51.59;101601.59;2104775;28;47239;-67
2023/03/20 02:19:19;;;;;;;;;17.50;17.00;;;;;11.84;51.39;101601.56;2087316;28;46342;-68
2023/03/20 02:20:25;;;;;;;;;24.60;20.80;;;;;11.84;51.54;101595.38;2090422;28;46507;-67
2023/03/20 02:21:51;;;;;;;;;19.00;18.00;;;;;11.84;51.75;101588.28;2105083;28;47123;-68
2023/03/20 02:23:10;;;;;;;;;14.40;14.40;;;;;11.84;51.43;101587.41;2097685;28;46778;-68
2023/03/20 02:24:48;;;;;;;;;17.60;16.20;;;;;11.86;51.79;101590.91;2104349;28;46967;-67
2023/03/20 02:25:57;;;;;;;;;18.60;15.00;;;;;11.86;51.79;101590.91;2101449;28;46316;-67
2023/03/20 02:27:15;;;;;;;;;19.00;18.40;;;;;11.85;51.72;101592.69;2101312;28;47161;-68
2023/03/20 02:28:37;;;;;;;;;22.80;21.40;;;;;11.85;51.72;101594.47;2101976;28;46346;-66
2023/03/20 02:30:00;;;;;;;;;19.60;16.00;;;;;11.86;51.88;101591.78;2104924;28;46898;-67
2023/03/20 02:31:21;;;;;;;;;19.80;17.40;;;;;11.87;51.96;101585.56;2096548;28;46869;-68
2023/03/20 02:32:51;;;;;;;;;19.00;17.00;;;;;11.89;51.79;101588.19;2089013;28;46619;-68
2023/03/20 02:34:20;;;;;;;;;20.20;17.80;;;;;11.90;51.92;101592.63;2082478;28;46665;-66
2023/03/20 02:35:45;;;;;;;;;20.80;19.00;;;;;11.89;51.97;101597.06;2070472;28;46121;-66
2023/03/20 02:37:27;;;;;;;;;18.20;18.20;;;;;11.88;51.89;101592.63;2069728;28;46323;-66
2023/03/20 02:38:50;;;;;;;;;20.00;20.00;;;;;11.87;52.05;101587.34;2030859;29;46851;-68
2023/03/20 02:40:10;;;;;;;;;18.40;17.20;;;;;11.85;52.09;101581.16;2036954;28;46609;-67
2023/03/20 02:41:29;;;;;;;;;21.80;18.40;;;;;11.83;52.02;101580.31;2038339;28;46409;-66
2023/03/20 02:42:54;;;;;;;;;20.20;18.60;;;;;11.82;52.05;101586.53;2038377;28;46848;-66
2023/03/20 02:43:57;;;;;;;;;20.40;18.80;;;;;11.81;52.23;101585.63;2037729;28;46717;-67
2023/03/20 02:45:19;;;;;;;;;19.00;18.00;;;;;11.82;52.11;101590.06;2042241;28;46037;-66
2023/03/20 02:46:35;;;;;;;;;21.80;20.60;;;;;11.83;52.21;101583.84;2038101;28;46399;-66
2023/03/20 02:48:14;;;;;;;;;20.60;19.80;;;;;11.85;52.19;101581.16;2038916;28;45648;-66
2023/03/20 02:49:14;;;;;;;;;23.20;22.00;;;;;11.85;52.10;101584.72;2030366;28;46577;-66
2023/03/20 02:50:34;;;;;;;;;20.50;17.25;;;;;11.85;52.01;101582.06;2030169;29;46783;-67
2023/03/20 02:52:01;;;;;;;;;20.80;17.60;;;;;11.83;52.13;101578.53;2030046;29;46403;-64
2023/03/20 02:53:27;;;;;;;;;18.60;18.60;;;;;11.82;52.18;101573.25;2030480;29;47168;-65
2023/03/20 02:54:40;;;;;;;;;18.40;17.40;;;;;11.80;52.02;101570.56;2026655;29;46862;-65
2023/03/20 02:55:46;;;;;;;;;21.20;19.60;;;;;11.78;52.45;101575.88;2022235;29;46337;-66
2023/03/20 02:56:48;;;;;;;;;17.40;16.20;;;;;11.77;52.45;101574.13;2022273;29;47047;-66
2023/03/20 02:58:19;;;;;;;;;18.60;18.40;;;;;11.76;52.44;101577.69;2021915;29;46544;-66
2023/03/20 02:59:40;;;;;;;;;16.00;15.60;;;;;11.77;52.60;101575.91;2022350;29;46589;-66
2023/03/20 03:00:54;;;;;;;;;18.20;17.20;;;;;11.77;52.62;101579.44;2022594;29;45626;-66
2023/03/20 03:02:11;;;;;;;;;21.00;16.80;;;;;11.77;52.83;101574.13;2021874;29;46387;-66
2023/03/20 03:03:28;;;;;;;;;20.80;20.00;;;;;11.76;52.76;101576.81;2022082;29;46840;-66
2023/03/20 03:04:38;;;;;;;;;15.60;15.60;;;;;11.76;52.75;101582.13;2022165;29;46813;-67
2023/03/20 03:05:52;;;;;;;;;17.00;17.00;;;;;11.76;52.74;101575.03;2022329;29;46410;-66
2023/03/20 03:06:55;;;;;;;;;22.00;20.40;;;;;11.75;52.77;101573.28;2022152;29;46982;-66
2023/03/20 03:07:59;;;;;;;;;19.20;19.20;;;;;11.76;52.78;101572.38;2022280;29;46569;-66
2023/03/20 03:09:34;;;;;;;;;24.20;21.40;;;;;11.77;52.90;101576.78;2021931;29;46820;-66
2023/03/20 03:10:41;;;;;;;;;22.40;21.40;;;;;11.78;52.79;101569.69;2014552;29;45866;-66
2023/03/20 03:11:56;;;;;;;;;25.20;24.40;;;;;11.77;53.02;101576.78;2009494;29;46270;-66
2023/03/20 03:13:01;;;;;;;;;25.20;23.60;;;;;11.76;52.92;101571.50;2026424;29;46780;-66
2023/03/20 03:14:03;;;;;;;;;19.40;16.80;;;;;11.76;52.75;101568.84;2026979;29;46379;-67
2023/03/20 03:15:13;;;;;;;;;21.00;19.80;;;;;11.76;52.88;101567.06;2025572;29;45808;-65
2023/03/20 03:16:24;;;;;;;;;23.60;23.40;;;;;11.75;52.96;101564.41;2042046;28;46638;-66
2023/03/20 03:17:30;;;;;;;;;15.20;14.60;;;;;11.74;53.10;101567.97;2057995;28;46904;-66
2023/03/20 03:18:34;;;;;;;;;24.40;23.00;;;;;11.72;52.89;101567.13;2057297;28;46362;-67
2023/03/20 03:19:38;;;;;;;;;26.40;24.80;;;;;11.71;52.89;101570.69;2059648;28;47138;-67
2023/03/20 03:20:39;;;;;;;;;24.80;24.40;;;;;11.71;53.23;101573.34;2058455;28;45640;-66
2023/03/20 03:21:40;;;;;;;;;27.50;24.50;;;;;11.70;53.29;101577.78;2056317;28;46587;-68
2023/03/20 03:22:41;;;;;;;;;19.20;19.20;;;;;11.71;53.07;101581.31;2055733;28;46755;-66
2023/03/20 03:23:46;;;;;;;;;20.75;19.00;;;;;11.71;53.30;101576.88;2054925;28;46593;-66
2023/03/20 03:24:49;;;;;;;;;20.80;19.40;;;;;11.72;53.06;101575.97;2059886;28;46522;-66
2023/03/20 03:25:52;;;;;;;;;19.20;19.00;;;;;11.74;52.95;101578.63;2060209;28;46856;-66
2023/03/20 03:26:53;;;;;;;;;20.00;18.60;;;;;11.73;52.95;101577.72;2058280;28;47796;-67
2023/03/20 03:28:11;;;;;;;;;18.75;17.75;;;;;11.72;52.97;101575.09;2052247;28;46135;-65
2023/03/20 03:29:16;;;;;;;;;21.60;19.60;;;;;11.71;52.78;101573.34;2053298;28;46388;-66
2023/03/20 03:30:22;;;;;;;;;20.60;16.60;;;;;11.67;53.05;101572.47;2052103;28;46523;-66
2023/03/20 03:31:23;;;;;;;;;19.40;18.40;;;;;11.66;53.00;101568.06;2052130;28;46350;-66
2023/03/20 03:32:32;;;;;;;;;22.20;21.80;;;;;11.63;53.07;101577.88;2070104;28;45539;-66
2023/03/20 03:33:36;;;;;;;;;19.80;19.40;;;;;11.60;53.00;101573.47;2069074;28;46358;-65
2023/03/20 03:34:36;;;;;;;;;21.80;19.80;;;;;11.58;53.26;101572.63;2073662;28;46348;-66
2023/03/20 03:35:39;;;;;;;;;21.00;19.75;;;;;11.57;52.92;101570.84;2077823;28;46289;-65
2023/03/20 03:37:02;;;;;;;;;19.40;19.00;;;;;11.57;53.06;101562.00;2077234;28;47167;-66
2023/03/20 03:38:10;;;;;;;;;16.40;16.00;;;;;11.57;52.99;101569.97;2075968;28;46645;-66
2023/03/20 03:39:28;;;;;;;;;20.00;20.00;;;;;11.57;53.09;101569.97;2075698;28;46312;-66
2023/03/20 03:40:43;;;;;;;;;24.00;23.00;;;;;11.55;53.07;101571.75;2078382;28;47006;-67
2023/03/20 03:41:52;;;;;;;;;16.20;15.60;;;;;11.54;53.22;101570.00;2078929;28;46927;-66
2023/03/20 03:43:22;;;;;;;;;22.60;20.60;;;;;11.52;53.21;101570.00;2077075;28;46483;-65
2023/03/20 03:44:32;;;;;;;;;23.00;21.00;;;;;11.47;52.77;101570.06;2067745;28;46351;-67
2023/03/20 03:45:48;;;;;;;;;18.80;18.80;;;;;11.45;53.04;101569.22;2063186;28;46368;-67
2023/03/20 03:46:56;;;;;;;;;23.20;22.40;;;;;11.42;53.04;101566.56;2055358;28;46337;-66
2023/03/20 03:48:16;;;;;;;;;22.20;21.60;;;;;11.39;53.16;101560.41;2081570;28;46763;-67
2023/03/20 03:49:25;;;;;;;;;24.60;24.60;;;;;11.37;53.37;101560.44;2098116;28;46013;-66
2023/03/20 03:51:06;;;;;;;;;5.60;5.60;;;;;11.35;53.26;101559.59;2096585;28;46900;-66
2023/03/20 03:52:11;;;;;;;;;23.40;21.60;;;;;11.35;53.50;101556.94;2098609;28;46606;-66
2023/03/20 03:53:13;;;;;;;;;21.00;20.00;;;;;11.36;53.38;101557.81;2104929;28;47397;-66
2023/03/20 03:54:21;;;;;;;;;22.40;21.20;;;;;11.35;53.56;101562.25;2097078;28;45441;-66
2023/03/20 03:55:26;;;;;;;;;19.40;18.00;;;;;11.36;53.22;101557.81;2096090;28;46634;-66
2023/03/20 03:56:31;;;;;;;;;22.60;21.60;;;;;11.37;53.32;101554.25;2096166;28;46471;-67
2023/03/20 03:57:56;;;;;;;;;25.00;23.00;;;;;11.37;53.44;101549.81;2096188;28;46511;-66
2023/03/20 03:59:14;;;;;;;;;21.40;21.00;;;;;11.37;53.21;101555.13;2096036;28;46550;-66
2023/03/20 04:00:20;;;;;;;;;21.60;21.60;;;;;11.37;53.45;101556.91;2096333;28;46268;-66
2023/03/20 04:01:24;;;;;;;;;16.20;14.40;;;;;11.36;53.29;101553.38;2104746;28;47025;-65
2023/03/20 04:02:25;;;;;;;;;20.80;20.80;;;;;11.37;53.22;101555.13;2101229;28;47304;-67
2023/03/20 04:03:32;;;;;;;;;22.20;21.40;;;;;11.36;53.45;101557.81;2104774;28;46524;-67
2023/03/20 04:04:36;;;;;;;;;18.60;17.20;;;;;11.34;53.25;101548.97;2104391;28;46442;-66
2023/03/20 04:05:41;;;;;;;;;22.20;21.00;;;;;11.34;53.10;101556.94;2104126;28;46805;-66
2023/03/20 04:06:42;;;;;;;;;24.00;21.40;;;;;11.33;53.39;101552.53;2097626;27;46750;-67
2023/03/20 04:07:47;;;;;;;;;22.50;20.50;;;;;11.35;53.32;101559.59;2100307;28;46285;-67
2023/03/20 04:08:48;;;;;;;;;21.60;21.00;;;;;11.33;53.39;101558.72;2092665;28;46524;-65
2023/03/20 04:09:48;;;;;;;;;20.25;19.00;;;;;11.31;53.27;101555.22;2096541;28;46289;-65
2023/03/20 04:10:49;;;;;;;;;22.75;20.75;;;;;11.30;53.41;101558.75;2096235;28;46274;-65
2023/03/20 04:11:51;;;;;;;;;21.75;21.00;;;;;11.29;53.38;101562.28;2099520;28;46376;-66
2023/03/20 04:12:51;;;;;;;;;19.80;18.80;;;;;11.31;53.54;101565.84;2096535;28;46502;-66
2023/03/20 04:13:52;;;;;;;;;21.75;21.75;;;;;11.31;53.58;101564.97;2095595;28;46424;-66
2023/03/20 04:14:52;;;;;;;;;18.75;16.50;;;;;11.31;53.47;101568.50;2095160;28;46697;-65
2023/03/20 04:15:52;;;;;;;;;18.75;18.75;;;;;11.30;53.27;101565.84;2087806;28;46716;-66
2023/03/20 04:16:53;;;;;;;;;19.75;19.50;;;;;11.31;53.41;101567.63;2094945;28;46564;-65
2023/03/20 04:17:53;;;;;;;;;24.50;23.25;;;;;11.30;53.39;101566.72;2112776;27;46611;-66
2023/03/20 04:18:54;;;;;;;;;21.25;19.75;;;;;11.30;53.60;101566.72;2107842;27;46702;-66
2023/03/20 04:19:55;;;;;;;;;16.80;16.00;;;;;11.30;53.58;101574.69;2110131;27;46939;-66
2023/03/20 04:20:55;;;;;;;;;24.50;23.00;;;;;11.28;53.47;101571.16;2113966;27;46643;-64
2023/03/20 04:21:56;;;;;;;;;20.00;20.00;;;;;11.29;53.40;101575.59;2114211;27;46615;-65
2023/03/20 04:22:56;;;;;;;;;20.25;18.75;;;;;11.29;53.40;101580.91;2111071;27;46758;-65
2023/03/20 04:23:56;;;;;;;;;24.50;23.50;;;;;11.29;53.66;101586.22;2106512;27;46351;-65
2023/03/20 04:24:57;;;;;;;;;21.50;19.50;;;;;11.30;53.65;101582.66;2105515;28;46197;-65
2023/03/20 04:25:57;;;;;;;;;20.50;20.25;;;;;11.31;53.63;101583.56;2108936;27;46019;-65
2023/03/20 04:26:58;;;;;;;;;23.00;22.50;;;;;11.30;53.58;101584.44;2107745;27;46258;-65
2023/03/20 04:27:58;;;;;;;;;20.75;20.75;;;;;11.29;53.34;101583.56;2109667;27;46600;-66
2023/03/20 04:28:59;;;;;;;;;20.75;18.75;;;;;11.30;53.56;101582.66;2111407;27;46726;-67
2023/03/20 04:29:59;;;;;;;;;25.25;22.00;;;;;11.29;53.52;101582.69;2107314;27;46798;-67
2023/03/20 04:31:01;;;;;;;;;20.00;20.00;;;;;11.28;53.40;101579.13;2111255;27;46617;-66
2023/03/20 04:32:01;;;;;;;;;20.20;19.40;;;;;11.28;53.45;101580.91;2109842;27;46436;-66
2023/03/20 04:33:01;;;;;;;;;21.25;20.00;;;;;11.27;53.76;101584.47;2105973;27;46328;-66
2023/03/20 04:34:02;;;;;;;;;22.75;22.75;;;;;11.26;53.53;101572.97;2104598;27;45585;-66
2023/03/20 04:35:02;;;;;;;;;22.25;21.50;;;;;11.27;53.77;101573.84;2107106;27;46796;-65
2023/03/20 04:36:03;;;;;;;;;23.00;21.50;;;;;11.26;53.82;101575.63;2098778;28;46335;-66
2023/03/20 04:37:06;;;;;;;;;23.75;23.00;;;;;11.27;53.79;101577.38;2096154;28;46918;-66
2023/03/20 04:38:07;;;;;;;;;19.00;19.00;;;;;11.27;53.88;101579.16;2105753;27;45366;-66
2023/03/20 04:39:08;;;;;;;;;21.40;20.80;;;;;11.28;53.77;101575.59;2113823;27;47169;-65
2023/03/20 04:40:09;;;;;;;;;19.25;18.00;;;;;11.28;53.58;101584.44;2113690;27;46771;-65
2023/03/20 04:41:09;;;;;;;;;18.20;18.20;;;;;11.27;53.66;101579.16;2105454;28;47177;-68
2023/03/20 04:42:09;;;;;;;;;20.50;20.50;;;;;11.27;53.71;101581.81;2103744;28;46561;-66
2023/03/20 04:43:10;;;;;;;;;20.00;18.25;;;;;11.25;53.82;101584.50;2107826;27;46622;-66
2023/03/20 04:44:10;;;;;;;;;23.50;23.00;;;;;11.25;53.73;101587.16;2109647;27;46187;-66
2023/03/20 04:45:10;;;;;;;;;20.75;18.75;;;;;11.26;53.72;101585.38;2106207;27;45880;-67
2023/03/20 04:46:11;;;;;;;;;17.50;17.50;;;;;11.27;53.68;101588.00;2105286;28;45642;-67
2023/03/20 04:47:11;;;;;;;;;18.50;18.50;;;;;11.28;53.67;101583.56;2106162;28;46711;-66
2023/03/20 04:48:12;;;;;;;;;21.00;19.25;;;;;11.28;53.55;101586.22;2108966;27;46288;-65
2023/03/20 04:49:12;;;;;;;;;16.25;15.25;;;;;11.28;53.75;101589.78;2109465;27;45202;-66
2023/03/20 04:50:13;;;;;;;;;15.00;13.25;;;;;11.27;53.71;101579.16;2112233;27;45971;-66
2023/03/20 04:51:13;;;;;;;;;24.25;22.50;;;;;11.26;53.87;101580.06;2107376;27;46320;-65
2023/03/20 04:52:13;;;;;;;;;21.50;20.50;;;;;11.28;53.81;101580.91;2101980;28;46253;-66
2023/03/20 04:53:15;;;;;;;;;19.25;18.75;;;;;11.27;53.60;101580.03;2097537;28;46333;-65
2023/03/20 04:54:15;;;;;;;;;20.60;20.00;;;;;11.27;53.64;101585.34;2105683;27;46621;-66
2023/03/20 04:55:15;;;;;;;;;20.50;20.50;;;;;11.25;53.75;101576.53;2112622;27;46339;-66
2023/03/20 04:56:16;;;;;;;;;27.75;23.50;;;;;11.23;53.74;101578.31;2108167;27;46019;-65
2023/03/20 04:57:16;;;;;;;;;19.75;19.75;;;;;11.22;53.66;101588.97;2101043;28;46281;-65
2023/03/20 04:58:16;;;;;;;;;21.25;19.25;;;;;11.20;53.58;101579.25;2102839;28;45256;-67
2023/03/20 04:59:17;;;;;;;;;18.25;18.25;;;;;11.19;53.81;101576.59;2107969;27;46848;-67
2023/03/20 05:00:17;;;;;;;;;20.50;19.25;;;;;11.17;53.74;101571.28;2112577;27;46591;-67
2023/03/20 05:01:18;;;;;;;;;18.75;18.50;;;;;11.16;53.60;101576.63;2109453;27;47023;-66